sensor_id;sensor_type;location;lat;lon;timestamp;temperature;humidity
27637;DHT22;15049;48.114;11.486;2022-07-03T00:00:30;16.10;80.10
27637;DHT22;15049;48.114;11.486;2022-07-03T00:02:56;16.30;81.20
27637;DHT22;15049;48.114;11.486;2022-07-03T00:05:22;16.00;82.60
27637;DHT22;15049;48.114;11.486;2022-07-03T00:07:48;16.20;83.10
27637;DHT22;15049;48.114;11.486;2022-07-03T00:10:13;16.50;83.10
27637;DHT22;15049;48.114;11.486;2022-07-03T00:12:41;16.20;81.40
27637;DHT22;15049;48.114;11.486;2022-07-03T00:15:08;16.30;81.80
27637;DHT22;15049;48.114;11.486;2022-07-03T00:17:34;16.40;79.80
27637;DHT22;15049;48.114;11.486;2022-07-03T00:20:00;16.30;79.50
27637;DHT22;15049;48.114;11.486;2022-07-03T00:22:26;16.10;79.90
27637;DHT22;15049;48.114;11.486;2022-07-03T00:24:54;16.30;80.80
27637;DHT22;15049;48.114;11.486;2022-07-03T00:27:24;16.30;79.00
27637;DHT22;15049;48.114;11.486;2022-07-03T00:29:55;16.30;78.70
27637;DHT22;15049;48.114;11.486;2022-07-03T00:32:23;16.50;77.80
27637;DHT22;15049;48.114;11.486;2022-07-03T00:34:50;16.20;77.80
27637;DHT22;15049;48.114;11.486;2022-07-03T00:37:16;16.40;77.50
27637;DHT22;15049;48.114;11.486;2022-07-03T00:39:43;16.20;76.90
27637;DHT22;15049;48.114;11.486;2022-07-03T00:42:10;16.60;76.20
27637;DHT22;15049;48.114;11.486;2022-07-03T00:44:43;16.70;75.60
27637;DHT22;15049;48.114;11.486;2022-07-03T00:47:11;16.40;76.70
27637;DHT22;15049;48.114;11.486;2022-07-03T00:49:38;16.30;77.80
27637;DHT22;15049;48.114;11.486;2022-07-03T00:52:05;16.30;77.40
27637;DHT22;15049;48.114;11.486;2022-07-03T00:54:34;16.60;78.30
27637;DHT22;15049;48.114;11.486;2022-07-03T00:57:01;16.40;78.60
27637;DHT22;15049;48.114;11.486;2022-07-03T00:59:27;16.60;77.80
27637;DHT22;15049;48.114;11.486;2022-07-03T01:02:04;16.30;78.20
27637;DHT22;15049;48.114;11.486;2022-07-03T01:04:40;16.30;79.20
27637;DHT22;15049;48.114;11.486;2022-07-03T01:07:14;16.50;79.30
27637;DHT22;15049;48.114;11.486;2022-07-03T01:09:52;16.30;79.70
27637;DHT22;15049;48.114;11.486;2022-07-03T01:12:21;16.30;80.20
27637;DHT22;15049;48.114;11.486;2022-07-03T01:14:56;16.40;81.00
27637;DHT22;15049;48.114;11.486;2022-07-03T01:17:26;16.10;81.00
27637;DHT22;15049;48.114;11.486;2022-07-03T01:20:02;16.10;81.00
27637;DHT22;15049;48.114;11.486;2022-07-03T01:22:30;15.90;82.50
27637;DHT22;15049;48.114;11.486;2022-07-03T01:25:07;15.90;84.20
27637;DHT22;15049;48.114;11.486;2022-07-03T01:27:51;16.20;84.60
27637;DHT22;15049;48.114;11.486;2022-07-03T01:30:23;16.00;85.60
27637;DHT22;15049;48.114;11.486;2022-07-03T01:32:56;16.00;87.50
27637;DHT22;15049;48.114;11.486;2022-07-03T01:35:27;16.20;88.70
27637;DHT22;15049;48.114;11.486;2022-07-03T01:37:54;16.00;89.60
27637;DHT22;15049;48.114;11.486;2022-07-03T01:40:21;15.90;88.30
27637;DHT22;15049;48.114;11.486;2022-07-03T01:42:52;16.10;86.90
27637;DHT22;15049;48.114;11.486;2022-07-03T01:45:19;16.20;86.80
27637;DHT22;15049;48.114;11.486;2022-07-03T01:47:46;16.10;85.50
27637;DHT22;15049;48.114;11.486;2022-07-03T01:50:14;15.90;86.90
27637;DHT22;15049;48.114;11.486;2022-07-03T01:52:42;15.90;87.30
27637;DHT22;15049;48.114;11.486;2022-07-03T01:55:08;16.00;89.60
27637;DHT22;15049;48.114;11.486;2022-07-03T01:57:41;15.80;90.00
27637;DHT22;15049;48.114;11.486;2022-07-03T02:00:10;16.10;90.10
27637;DHT22;15049;48.114;11.486;2022-07-03T02:02:42;16.00;90.20
27637;DHT22;15049;48.114;11.486;2022-07-03T02:05:09;16.00;90.60
27637;DHT22;15049;48.114;11.486;2022-07-03T02:07:56;15.90;91.40
27637;DHT22;15049;48.114;11.486;2022-07-03T02:10:28;16.00;91.30
27637;DHT22;15049;48.114;11.486;2022-07-03T02:13:00;15.90;91.20
27637;DHT22;15049;48.114;11.486;2022-07-03T02:15:32;15.90;90.90
27637;DHT22;15049;48.114;11.486;2022-07-03T02:18:06;15.70;90.40
27637;DHT22;15049;48.114;11.486;2022-07-03T02:20:36;15.90;90.60
27637;DHT22;15049;48.114;11.486;2022-07-03T02:23:06;15.50;91.30
27637;DHT22;15049;48.114;11.486;2022-07-03T02:25:35;15.90;92.10
27637;DHT22;15049;48.114;11.486;2022-07-03T02:28:04;15.80;92.30
27637;DHT22;15049;48.114;11.486;2022-07-03T02:30:35;15.70;93.20
27637;DHT22;15049;48.114;11.486;2022-07-03T02:33:02;15.70;94.30
27637;DHT22;15049;48.114;11.486;2022-07-03T02:35:31;15.50;94.30
27637;DHT22;15049;48.114;11.486;2022-07-03T02:38:01;15.50;94.70
27637;DHT22;15049;48.114;11.486;2022-07-03T02:40:37;15.20;95.10
27637;DHT22;15049;48.114;11.486;2022-07-03T02:43:15;15.60;95.60
27637;DHT22;15049;48.114;11.486;2022-07-03T02:45:48;15.40;96.30
27637;DHT22;15049;48.114;11.486;2022-07-03T02:48:21;15.60;96.60
27637;DHT22;15049;48.114;11.486;2022-07-03T02:50:54;15.40;96.70
27637;DHT22;15049;48.114;11.486;2022-07-03T02:53:24;15.40;97.70
27637;DHT22;15049;48.114;11.486;2022-07-03T02:56:02;15.50;97.70
27637;DHT22;15049;48.114;11.486;2022-07-03T02:58:44;15.40;97.90
27637;DHT22;15049;48.114;11.486;2022-07-03T03:01:24;15.30;98.60
27637;DHT22;15049;48.114;11.486;2022-07-03T03:04:06;15.30;99.90
27637;DHT22;15049;48.114;11.486;2022-07-03T03:06:33;15.30;99.90
27637;DHT22;15049;48.114;11.486;2022-07-03T03:09:03;15.30;99.90
27637;DHT22;15049;48.114;11.486;2022-07-03T03:11:33;15.10;99.90
27637;DHT22;15049;48.114;11.486;2022-07-03T03:14:06;14.80;99.90
27637;DHT22;15049;48.114;11.486;2022-07-03T03:16:36;15.20;99.90
27637;DHT22;15049;48.114;11.486;2022-07-03T03:19:04;15.20;99.90
27637;DHT22;15049;48.114;11.486;2022-07-03T03:21:31;15.00;99.90
27637;DHT22;15049;48.114;11.486;2022-07-03T03:24:04;15.00;99.90
27637;DHT22;15049;48.114;11.486;2022-07-03T03:26:30;14.90;99.90
27637;DHT22;15049;48.114;11.486;2022-07-03T03:28:59;15.10;99.90
27637;DHT22;15049;48.114;11.486;2022-07-03T03:31:26;15.30;99.90
27637;DHT22;15049;48.114;11.486;2022-07-03T03:33:55;15.30;99.90
27637;DHT22;15049;48.114;11.486;2022-07-03T03:36:21;15.20;99.90
27637;DHT22;15049;48.114;11.486;2022-07-03T03:38:49;15.30;99.90
27637;DHT22;15049;48.114;11.486;2022-07-03T03:41:15;15.20;99.90
27637;DHT22;15049;48.114;11.486;2022-07-03T03:43:41;15.30;99.90
27637;DHT22;15049;48.114;11.486;2022-07-03T03:46:07;15.40;99.90
27637;DHT22;15049;48.114;11.486;2022-07-03T03:48:33;15.30;99.90
27637;DHT22;15049;48.114;11.486;2022-07-03T03:51:01;15.20;99.90
27637;DHT22;15049;48.114;11.486;2022-07-03T03:53:27;15.40;99.90
27637;DHT22;15049;48.114;11.486;2022-07-03T03:56:01;15.60;99.90
27637;DHT22;15049;48.114;11.486;2022-07-03T03:58:28;15.60;99.90
27637;DHT22;15049;48.114;11.486;2022-07-03T04:00:55;15.20;99.90
27637;DHT22;15049;48.114;11.486;2022-07-03T04:03:21;15.20;99.90
27637;DHT22;15049;48.114;11.486;2022-07-03T04:05:47;15.60;99.90
27637;DHT22;15049;48.114;11.486;2022-07-03T04:08:14;15.50;99.90
27637;DHT22;15049;48.114;11.486;2022-07-03T04:10:40;15.50;99.90
27637;DHT22;15049;48.114;11.486;2022-07-03T04:13:06;15.30;99.90
27637;DHT22;15049;48.114;11.486;2022-07-03T04:15:31;15.60;99.90
27637;DHT22;15049;48.114;11.486;2022-07-03T04:17:57;15.80;99.90
27637;DHT22;15049;48.114;11.486;2022-07-03T04:20:24;15.70;99.90
27637;DHT22;15049;48.114;11.486;2022-07-03T04:22:50;15.90;99.90
27637;DHT22;15049;48.114;11.486;2022-07-03T04:25:17;16.00;99.90
27637;DHT22;15049;48.114;11.486;2022-07-03T04:27:43;16.20;99.90
27637;DHT22;15049;48.114;11.486;2022-07-03T04:30:10;16.20;99.90
27637;DHT22;15049;48.114;11.486;2022-07-03T04:32:36;16.00;99.90
27637;DHT22;15049;48.114;11.486;2022-07-03T04:35:02;16.60;99.90
27637;DHT22;15049;48.114;11.486;2022-07-03T04:37:27;16.50;99.90
27637;DHT22;15049;48.114;11.486;2022-07-03T04:39:53;16.70;99.90
27637;DHT22;15049;48.114;11.486;2022-07-03T04:42:20;16.50;99.90
27637;DHT22;15049;48.114;11.486;2022-07-03T04:44:46;16.60;99.90
27637;DHT22;15049;48.114;11.486;2022-07-03T04:47:12;16.90;99.90
27637;DHT22;15049;48.114;11.486;2022-07-03T04:49:40;17.10;99.90
27637;DHT22;15049;48.114;11.486;2022-07-03T04:52:06;17.20;99.90
27637;DHT22;15049;48.114;11.486;2022-07-03T04:54:32;17.10;99.90
27637;DHT22;15049;48.114;11.486;2022-07-03T04:56:57;17.40;99.90
27637;DHT22;15049;48.114;11.486;2022-07-03T04:59:24;17.00;99.90
27637;DHT22;15049;48.114;11.486;2022-07-03T05:01:50;17.30;99.90
27637;DHT22;15049;48.114;11.486;2022-07-03T05:04:17;17.70;99.90
27637;DHT22;15049;48.114;11.486;2022-07-03T05:06:43;17.90;99.90
27637;DHT22;15049;48.114;11.486;2022-07-03T05:09:09;18.00;99.90
27637;DHT22;15049;48.114;11.486;2022-07-03T05:11:35;17.80;99.90
27637;DHT22;15049;48.114;11.486;2022-07-03T05:14:01;18.10;99.90
27637;DHT22;15049;48.114;11.486;2022-07-03T05:16:28;18.20;99.90
27637;DHT22;15049;48.114;11.486;2022-07-03T05:18:55;18.40;99.90
27637;DHT22;15049;48.114;11.486;2022-07-03T05:21:21;18.40;99.90
27637;DHT22;15049;48.114;11.486;2022-07-03T05:23:47;18.10;99.90
27637;DHT22;15049;48.114;11.486;2022-07-03T05:26:13;18.60;99.00
27637;DHT22;15049;48.114;11.486;2022-07-03T05:28:39;18.70;99.30
27637;DHT22;15049;48.114;11.486;2022-07-03T05:31:05;18.80;97.80
27637;DHT22;15049;48.114;11.486;2022-07-03T05:33:32;18.90;96.50
27637;DHT22;15049;48.114;11.486;2022-07-03T05:35:58;19.00;96.00
27637;DHT22;15049;48.114;11.486;2022-07-03T05:38:25;19.10;94.50
27637;DHT22;15049;48.114;11.486;2022-07-03T05:41:10;19.20;93.00
27637;DHT22;15049;48.114;11.486;2022-07-03T05:43:36;19.30;89.40
27637;DHT22;15049;48.114;11.486;2022-07-03T05:46:02;19.40;89.70
27637;DHT22;15049;48.114;11.486;2022-07-03T05:48:29;19.50;87.70
27637;DHT22;15049;48.114;11.486;2022-07-03T05:50:56;19.60;86.70
27637;DHT22;15049;48.114;11.486;2022-07-03T05:53:22;19.70;84.30
27637;DHT22;15049;48.114;11.486;2022-07-03T05:55:48;19.80;83.10
27637;DHT22;15049;48.114;11.486;2022-07-03T05:58:14;19.90;80.20
27637;DHT22;15049;48.114;11.486;2022-07-03T06:00:40;20.00;78.30
27637;DHT22;15049;48.114;11.486;2022-07-03T06:03:06;20.10;76.80
27637;DHT22;15049;48.114;11.486;2022-07-03T06:05:32;20.20;74.50
27637;DHT22;15049;48.114;11.486;2022-07-03T06:07:59;20.30;72.00
27637;DHT22;15049;48.114;11.486;2022-07-03T06:10:26;20.40;70.10
27637;DHT22;15049;48.114;11.486;2022-07-03T06:12:53;20.50;69.90
27637;DHT22;15049;48.114;11.486;2022-07-03T06:15:18;20.60;59.30
27637;DHT22;15049;48.114;11.486;2022-07-03T06:17:44;20.70;57.60
27637;DHT22;15049;48.114;11.486;2022-07-03T06:20:11;20.80;53.70
27637;DHT22;15049;48.114;11.486;2022-07-03T06:22:37;20.90;51.90
27637;DHT22;15049;48.114;11.486;2022-07-03T06:25:06;21.00;50.50
27637;DHT22;15049;48.114;11.486;2022-07-03T06:27:31;21.10;49.40
27637;DHT22;15049;48.114;11.486;2022-07-03T06:29:57;21.20;49.40
27637;DHT22;15049;48.114;11.486;2022-07-03T06:32:23;21.20;48.50
27637;DHT22;15049;48.114;11.486;2022-07-03T06:34:48;21.30;48.30
27637;DHT22;15049;48.114;11.486;2022-07-03T06:37:15;21.50;48.40
27637;DHT22;15049;48.114;11.486;2022-07-03T06:39:40;21.50;48.20
27637;DHT22;15049;48.114;11.486;2022-07-03T06:42:08;21.60;48.70
27637;DHT22;15049;48.114;11.486;2022-07-03T06:44:33;21.70;46.30
27637;DHT22;15049;48.114;11.486;2022-07-03T06:46:59;21.80;46.00
27637;DHT22;15049;48.114;11.486;2022-07-03T06:49:29;21.90;44.30
27637;DHT22;15049;48.114;11.486;2022-07-03T06:51:54;22.00;43.60
27637;DHT22;15049;48.114;11.486;2022-07-03T06:54:20;22.00;43.50
27637;DHT22;15049;48.114;11.486;2022-07-03T06:56:46;22.10;42.80
27637;DHT22;15049;48.114;11.486;2022-07-03T06:59:13;22.20;42.70
27637;DHT22;15049;48.114;11.486;2022-07-03T07:01:39;22.30;42.70
27637;DHT22;15049;48.114;11.486;2022-07-03T07:04:05;22.40;42.60
27637;DHT22;15049;48.114;11.486;2022-07-03T07:06:31;22.40;41.80
27637;DHT22;15049;48.114;11.486;2022-07-03T07:08:56;22.40;41.90
27637;DHT22;15049;48.114;11.486;2022-07-03T07:11:22;22.60;42.00
27637;DHT22;15049;48.114;11.486;2022-07-03T07:13:48;22.80;41.10
27637;DHT22;15049;48.114;11.486;2022-07-03T07:16:15;22.80;40.00
27637;DHT22;15049;48.114;11.486;2022-07-03T07:18:41;22.80;39.70
27637;DHT22;15049;48.114;11.486;2022-07-03T07:21:07;22.80;37.80
27637;DHT22;15049;48.114;11.486;2022-07-03T07:23:33;22.90;37.80
27637;DHT22;15049;48.114;11.486;2022-07-03T07:25:59;22.90;37.30
27637;DHT22;15049;48.114;11.486;2022-07-03T07:28:24;22.90;36.40
27637;DHT22;15049;48.114;11.486;2022-07-03T07:30:50;22.90;36.00
27637;DHT22;15049;48.114;11.486;2022-07-03T07:33:21;22.90;36.00
27637;DHT22;15049;48.114;11.486;2022-07-03T07:35:47;22.90;36.60
27637;DHT22;15049;48.114;11.486;2022-07-03T07:38:13;23.00;36.40
27637;DHT22;15049;48.114;11.486;2022-07-03T07:40:38;23.20;36.20
27637;DHT22;15049;48.114;11.486;2022-07-03T07:43:04;23.30;36.10
27637;DHT22;15049;48.114;11.486;2022-07-03T07:45:30;23.40;35.40
27637;DHT22;15049;48.114;11.486;2022-07-03T07:47:56;23.50;35.30
27637;DHT22;15049;48.114;11.486;2022-07-03T07:50:23;23.50;35.50
27637;DHT22;15049;48.114;11.486;2022-07-03T07:52:48;23.60;35.60
27637;DHT22;15049;48.114;11.486;2022-07-03T07:55:14;23.60;35.60
27637;DHT22;15049;48.114;11.486;2022-07-03T07:57:40;23.70;34.80
27637;DHT22;15049;48.114;11.486;2022-07-03T08:00:07;23.70;35.30
27637;DHT22;15049;48.114;11.486;2022-07-03T08:02:34;23.70;34.70
27637;DHT22;15049;48.114;11.486;2022-07-03T08:05:18;23.70;34.30
27637;DHT22;15049;48.114;11.486;2022-07-03T08:08:05;23.80;34.40
27637;DHT22;15049;48.114;11.486;2022-07-03T08:10:36;23.90;33.10
27637;DHT22;15049;48.114;11.486;2022-07-03T08:13:03;23.90;34.00
27637;DHT22;15049;48.114;11.486;2022-07-03T08:15:28;24.00;33.70
27637;DHT22;15049;48.114;11.486;2022-07-03T08:17:54;24.10;32.20
27637;DHT22;15049;48.114;11.486;2022-07-03T08:20:20;24.10;32.20
27637;DHT22;15049;48.114;11.486;2022-07-03T08:22:46;24.10;33.10
27637;DHT22;15049;48.114;11.486;2022-07-03T08:25:13;24.00;32.90
27637;DHT22;15049;48.114;11.486;2022-07-03T08:27:39;24.10;32.90
27637;DHT22;15049;48.114;11.486;2022-07-03T08:30:06;24.10;31.80
27637;DHT22;15049;48.114;11.486;2022-07-03T08:32:32;24.10;32.70
27637;DHT22;15049;48.114;11.486;2022-07-03T08:34:57;24.20;32.10
27637;DHT22;15049;48.114;11.486;2022-07-03T08:37:23;24.20;31.10
27637;DHT22;15049;48.114;11.486;2022-07-03T08:39:49;24.30;30.70
27637;DHT22;15049;48.114;11.486;2022-07-03T08:42:16;24.30;30.30
27637;DHT22;15049;48.114;11.486;2022-07-03T08:44:43;24.30;30.60
27637;DHT22;15049;48.114;11.486;2022-07-03T08:47:12;24.40;29.80
27637;DHT22;15049;48.114;11.486;2022-07-03T08:49:38;24.40;30.10
27637;DHT22;15049;48.114;11.486;2022-07-03T08:52:04;24.50;31.20
27637;DHT22;15049;48.114;11.486;2022-07-03T08:54:35;24.60;30.90
27637;DHT22;15049;48.114;11.486;2022-07-03T08:57:01;24.70;30.50
27637;DHT22;15049;48.114;11.486;2022-07-03T08:59:32;24.70;30.10
27637;DHT22;15049;48.114;11.486;2022-07-03T09:02:02;24.70;29.80
27637;DHT22;15049;48.114;11.486;2022-07-03T09:04:30;24.80;30.50
27637;DHT22;15049;48.114;11.486;2022-07-03T09:06:55;24.80;28.60
27637;DHT22;15049;48.114;11.486;2022-07-03T09:09:22;25.00;27.90
27637;DHT22;15049;48.114;11.486;2022-07-03T09:11:48;25.10;26.90
27637;DHT22;15049;48.114;11.486;2022-07-03T09:14:14;25.10;26.80
27637;DHT22;15049;48.114;11.486;2022-07-03T09:16:42;25.20;27.40
27637;DHT22;15049;48.114;11.486;2022-07-03T09:19:08;25.30;26.70
27637;DHT22;15049;48.114;11.486;2022-07-03T09:21:38;25.40;26.20
27637;DHT22;15049;48.114;11.486;2022-07-03T09:24:05;25.40;25.70
27637;DHT22;15049;48.114;11.486;2022-07-03T09:26:32;25.50;26.30
27637;DHT22;15049;48.114;11.486;2022-07-03T09:28:58;25.60;26.30
27637;DHT22;15049;48.114;11.486;2022-07-03T09:31:25;25.70;26.70
27637;DHT22;15049;48.114;11.486;2022-07-03T09:33:56;25.70;25.50
27637;DHT22;15049;48.114;11.486;2022-07-03T09:36:23;25.70;25.30
27637;DHT22;15049;48.114;11.486;2022-07-03T09:39:12;25.70;25.90
27637;DHT22;15049;48.114;11.486;2022-07-03T09:41:54;25.70;25.70
27637;DHT22;15049;48.114;11.486;2022-07-03T09:44:28;25.80;25.30
27637;DHT22;15049;48.114;11.486;2022-07-03T09:47:09;25.90;24.70
27637;DHT22;15049;48.114;11.486;2022-07-03T09:49:51;25.90;23.50
27637;DHT22;15049;48.114;11.486;2022-07-03T09:52:29;26.00;23.90
27637;DHT22;15049;48.114;11.486;2022-07-03T09:54:56;26.20;23.70
27637;DHT22;15049;48.114;11.486;2022-07-03T09:57:22;26.20;22.00
27637;DHT22;15049;48.114;11.486;2022-07-03T10:00:08;26.20;22.50
27637;DHT22;15049;48.114;11.486;2022-07-03T10:02:41;26.30;21.90
27637;DHT22;15049;48.114;11.486;2022-07-03T10:05:17;26.40;22.60
27637;DHT22;15049;48.114;11.486;2022-07-03T10:07:50;26.50;22.20
27637;DHT22;15049;48.114;11.486;2022-07-03T10:10:17;26.60;22.20
27637;DHT22;15049;48.114;11.486;2022-07-03T10:12:43;26.80;22.10
27637;DHT22;15049;48.114;11.486;2022-07-03T10:15:11;26.80;21.70
27637;DHT22;15049;48.114;11.486;2022-07-03T10:17:38;26.80;21.40
27637;DHT22;15049;48.114;11.486;2022-07-03T10:20:04;26.90;22.00
27637;DHT22;15049;48.114;11.486;2022-07-03T10:22:34;27.00;21.00
27637;DHT22;15049;48.114;11.486;2022-07-03T10:25:01;27.10;19.70
27637;DHT22;15049;48.114;11.486;2022-07-03T10:27:29;27.10;18.80
27637;DHT22;15049;48.114;11.486;2022-07-03T10:29:55;27.30;18.60
27637;DHT22;15049;48.114;11.486;2022-07-03T10:32:21;27.40;18.00
27637;DHT22;15049;48.114;11.486;2022-07-03T10:34:47;27.50;17.50
27637;DHT22;15049;48.114;11.486;2022-07-03T10:37:17;27.60;17.80
27637;DHT22;15049;48.114;11.486;2022-07-03T10:39:55;27.60;15.90
27637;DHT22;15049;48.114;11.486;2022-07-03T10:42:42;27.60;17.00
27637;DHT22;15049;48.114;11.486;2022-07-03T10:45:28;27.90;16.30
27637;DHT22;15049;48.114;11.486;2022-07-03T10:47:54;28.10;15.50
27637;DHT22;15049;48.114;11.486;2022-07-03T10:50:21;28.10;16.20
27637;DHT22;15049;48.114;11.486;2022-07-03T10:52:47;28.30;15.60
27637;DHT22;15049;48.114;11.486;2022-07-03T10:55:15;28.30;15.50
27637;DHT22;15049;48.114;11.486;2022-07-03T10:57:43;28.30;15.50
27637;DHT22;15049;48.114;11.486;2022-07-03T11:00:14;28.30;15.50
27637;DHT22;15049;48.114;11.486;2022-07-03T11:02:41;28.50;15.60
27637;DHT22;15049;48.114;11.486;2022-07-03T11:05:10;28.70;15.00
27637;DHT22;15049;48.114;11.486;2022-07-03T11:07:43;28.80;15.10
27637;DHT22;15049;48.114;11.486;2022-07-03T11:10:44;28.90;14.70
27637;DHT22;15049;48.114;11.486;2022-07-03T11:13:15;29.10;14.30
27637;DHT22;15049;48.114;11.486;2022-07-03T11:15:46;29.20;14.60
27637;DHT22;15049;48.114;11.486;2022-07-03T11:18:17;29.40;14.00
27637;DHT22;15049;48.114;11.486;2022-07-03T11:24:02;29.50;13.10
27637;DHT22;15049;48.114;11.486;2022-07-03T11:26:30;29.60;13.30
27637;DHT22;15049;48.114;11.486;2022-07-03T11:28:56;29.70;12.60
27637;DHT22;15049;48.114;11.486;2022-07-03T11:31:22;29.60;13.20
27637;DHT22;15049;48.114;11.486;2022-07-03T11:33:56;29.80;13.20
27637;DHT22;15049;48.114;11.486;2022-07-03T11:36:26;29.80;11.80
27637;DHT22;15049;48.114;11.486;2022-07-03T11:39:03;29.80;11.60
27637;DHT22;15049;48.114;11.486;2022-07-03T11:41:42;29.80;11.70
27637;DHT22;15049;48.114;11.486;2022-07-03T11:44:14;30.00;11.80
27637;DHT22;15049;48.114;11.486;2022-07-03T11:46:40;29.90;12.30
27637;DHT22;15049;48.114;11.486;2022-07-03T11:49:07;30.00;12.70
27637;DHT22;15049;48.114;11.486;2022-07-03T11:51:33;30.20;12.20
27637;DHT22;15049;48.114;11.486;2022-07-03T11:53:59;30.40;13.10
27637;DHT22;15049;48.114;11.486;2022-07-03T11:56:25;30.40;11.80
27637;DHT22;15049;48.114;11.486;2022-07-03T11:58:54;30.50;12.30
27637;DHT22;15049;48.114;11.486;2022-07-03T12:01:29;30.70;11.40
27637;DHT22;15049;48.114;11.486;2022-07-03T12:04:04;30.60;12.00
27637;DHT22;15049;48.114;11.486;2022-07-03T12:06:33;30.80;12.60
27637;DHT22;15049;48.114;11.486;2022-07-03T12:08:59;31.20;11.70
27637;DHT22;15049;48.114;11.486;2022-07-03T12:11:25;31.10;11.80
27637;DHT22;15049;48.114;11.486;2022-07-03T12:13:52;31.40;12.50
27637;DHT22;15049;48.114;11.486;2022-07-03T12:16:18;31.60;12.20
27637;DHT22;15049;48.114;11.486;2022-07-03T12:18:49;31.60;10.90
27637;DHT22;15049;48.114;11.486;2022-07-03T12:21:17;31.80;10.80
27637;DHT22;15049;48.114;11.486;2022-07-03T12:23:45;31.70;11.50
27637;DHT22;15049;48.114;11.486;2022-07-03T12:26:11;31.80;10.90
27637;DHT22;15049;48.114;11.486;2022-07-03T12:28:37;31.90;11.50
27637;DHT22;15049;48.114;11.486;2022-07-03T12:31:05;31.90;10.90
27637;DHT22;15049;48.114;11.486;2022-07-03T12:33:31;32.10;11.50
27637;DHT22;15049;48.114;11.486;2022-07-03T12:36:04;32.20;11.20
27637;DHT22;15049;48.114;11.486;2022-07-03T12:38:31;32.40;11.00
27637;DHT22;15049;48.114;11.486;2022-07-03T12:41:05;32.40;10.90
27637;DHT22;15049;48.114;11.486;2022-07-03T12:43:39;32.30;10.60
27637;DHT22;15049;48.114;11.486;2022-07-03T12:46:19;32.20;11.20
27637;DHT22;15049;48.114;11.486;2022-07-03T12:48:47;32.40;11.10
27637;DHT22;15049;48.114;11.486;2022-07-03T12:51:13;32.50;11.10
27637;DHT22;15049;48.114;11.486;2022-07-03T12:53:39;32.60;10.60
27637;DHT22;15049;48.114;11.486;2022-07-03T12:56:07;32.80;10.20
27637;DHT22;15049;48.114;11.486;2022-07-03T12:58:34;32.90;10.40
27637;DHT22;15049;48.114;11.486;2022-07-03T13:01:27;33.00;10.60
27637;DHT22;15049;48.114;11.486;2022-07-03T13:03:53;33.10;10.10
27637;DHT22;15049;48.114;11.486;2022-07-03T13:06:20;32.80;10.30
27637;DHT22;15049;48.114;11.486;2022-07-03T13:08:52;32.90;9.80
27637;DHT22;15049;48.114;11.486;2022-07-03T13:11:26;32.90;9.60
27637;DHT22;15049;48.114;11.486;2022-07-03T13:13:52;33.10;9.10
27637;DHT22;15049;48.114;11.486;2022-07-03T13:16:24;33.10;9.00
27637;DHT22;15049;48.114;11.486;2022-07-03T13:18:58;32.80;9.20
27637;DHT22;15049;48.114;11.486;2022-07-03T13:21:24;32.80;9.70
27637;DHT22;15049;48.114;11.486;2022-07-03T13:23:50;32.90;9.60
27637;DHT22;15049;48.114;11.486;2022-07-03T13:26:15;33.30;9.20
27637;DHT22;15049;48.114;11.486;2022-07-03T13:28:41;33.30;9.70
27637;DHT22;15049;48.114;11.486;2022-07-03T13:31:07;33.30;9.10
27637;DHT22;15049;48.114;11.486;2022-07-03T13:33:33;33.60;8.50
27637;DHT22;15049;48.114;11.486;2022-07-03T13:36:00;33.60;8.40
27637;DHT22;15049;48.114;11.486;2022-07-03T13:38:26;33.50;8.30
27637;DHT22;15049;48.114;11.486;2022-07-03T13:40:51;33.30;9.40
27637;DHT22;15049;48.114;11.486;2022-07-03T13:43:17;33.40;9.20
27637;DHT22;15049;48.114;11.486;2022-07-03T13:45:43;33.40;9.50
27637;DHT22;15049;48.114;11.486;2022-07-03T13:48:09;33.60;9.10
27637;DHT22;15049;48.114;11.486;2022-07-03T13:50:34;33.50;9.10
27637;DHT22;15049;48.114;11.486;2022-07-03T13:53:02;33.90;9.10
27637;DHT22;15049;48.114;11.486;2022-07-03T13:55:27;34.40;9.30
27637;DHT22;15049;48.114;11.486;2022-07-03T13:57:54;34.40;8.30
27637;DHT22;15049;48.114;11.486;2022-07-03T14:00:20;34.30;8.40
27637;DHT22;15049;48.114;11.486;2022-07-03T14:02:46;34.40;8.40
27637;DHT22;15049;48.114;11.486;2022-07-03T14:05:12;34.40;8.40
27637;DHT22;15049;48.114;11.486;2022-07-03T14:07:37;34.70;8.10
27637;DHT22;15049;48.114;11.486;2022-07-03T14:10:05;34.40;8.10
27637;DHT22;15049;48.114;11.486;2022-07-03T14:12:31;34.20;7.90
27637;DHT22;15049;48.114;11.486;2022-07-03T14:14:57;34.50;8.80
27637;DHT22;15049;48.114;11.486;2022-07-03T14:17:23;34.40;6.60
27637;DHT22;15049;48.114;11.486;2022-07-03T14:19:49;34.30;7.50
27637;DHT22;15049;48.114;11.486;2022-07-03T14:22:15;34.50;7.30
27637;DHT22;15049;48.114;11.486;2022-07-03T14:24:40;34.40;7.70
27637;DHT22;15049;48.114;11.486;2022-07-03T14:27:07;34.20;7.90
27637;DHT22;15049;48.114;11.486;2022-07-03T14:29:52;34.00;8.00
27637;DHT22;15049;48.114;11.486;2022-07-03T14:32:36;34.00;7.90
27637;DHT22;15049;48.114;11.486;2022-07-03T14:35:03;34.00;8.20
27637;DHT22;15049;48.114;11.486;2022-07-03T14:37:29;34.10;7.90
27637;DHT22;15049;48.114;11.486;2022-07-03T14:39:55;34.20;7.90
27637;DHT22;15049;48.114;11.486;2022-07-03T14:42:23;34.40;8.20
27637;DHT22;15049;48.114;11.486;2022-07-03T14:44:48;34.70;7.80
27637;DHT22;15049;48.114;11.486;2022-07-03T14:47:14;34.80;7.90
27637;DHT22;15049;48.114;11.486;2022-07-03T14:49:40;34.70;7.60
27637;DHT22;15049;48.114;11.486;2022-07-03T14:52:07;34.70;8.20
27637;DHT22;15049;48.114;11.486;2022-07-03T14:54:33;34.60;6.80
27637;DHT22;15049;48.114;11.486;2022-07-03T14:57:06;34.70;7.20
27637;DHT22;15049;48.114;11.486;2022-07-03T14:59:44;34.90;7.20
27637;DHT22;15049;48.114;11.486;2022-07-03T15:02:18;35.30;7.10
27637;DHT22;15049;48.114;11.486;2022-07-03T15:04:56;35.20;6.50
27637;DHT22;15049;48.114;11.486;2022-07-03T15:07:24;34.90;6.40
27637;DHT22;15049;48.114;11.486;2022-07-03T15:10:03;34.70;7.00
27637;DHT22;15049;48.114;11.486;2022-07-03T15:12:32;34.70;6.70
27637;DHT22;15049;48.114;11.486;2022-07-03T15:14:59;34.50;6.40
27637;DHT22;15049;48.114;11.486;2022-07-03T15:17:25;34.50;7.30
27637;DHT22;15049;48.114;11.486;2022-07-03T15:19:53;34.60;6.90
27637;DHT22;15049;48.114;11.486;2022-07-03T15:22:22;34.90;6.30
27637;DHT22;15049;48.114;11.486;2022-07-03T15:24:49;35.10;6.40
27637;DHT22;15049;48.114;11.486;2022-07-03T15:27:18;34.90;6.60
27637;DHT22;15049;48.114;11.486;2022-07-03T15:29:45;34.80;6.20